Piper Inness — WDC3984 — position and weather

sailwx.info

Track history (hours):
 
Tides and Currents Weather Stations Pressure Air Temp Water Temp Dewpoint Dewpoint Depression Visibility Wind Speed Wind Dir Waves Ship Positions

Piper Inness

Owner: Foss Maritime Co, Seattle, WA. More information available from US FCC via Universal Licensing System and Coast Guard Vessel Documentation Center.

Last reported at 2016-Sep-22 12:33 UTC. Time now 2016-Sep-26 00:13 UTC.
Position N 33°46' W 118°13'.

; draft 2 m.

Type: Other ship. MMSI: 367017440.

Date/timePositionNaut miles runAvg speedWind from/ knotsBaromVisibWave heightAir tempDewpointWater temp
2016-Sep-22 12:33N 33°46' W 118°13'0 0.0
2016-Sep-22 04:33N 33°46' W 118°13'0 0.0
2016-Sep-22 03:33N 33°46' W 118°13'0 0.0
2016-Sep-21 19:31N 33°46' W 118°13'46 4.6
2016-Sep-21 09:33N 33°03' W 117°54'1 1.4
2016-Sep-21 08:33N 33°03' W 117°52'4 1.4
2016-Sep-21 05:33N 33°00' W 117°48'0 0.1
2016-Sep-21 03:33N 32°60' W 117°48'2 1.9
2016-Sep-21 02:33N 32°58' W 117°48'2 0.2
2016-Sep-20 17:33N 32°60' W 117°49'1 0.5
2016-Sep-20 14:33N 33°01' W 117°50'0 0.4
2016-Sep-20 13:33N 33°01' W 117°51'0 0.1
2016-Sep-20 10:33N 33°01' W 117°51'1 0.6
2016-Sep-20 08:33N 33°02' W 117°52'4 3.7
2016-Sep-20 07:33N 33°04' W 117°55'4 4.1
2016-Sep-20 06:33N 33°08' W 117°58'25 6.1
2016-Sep-20 02:33N 33°32' W 118°04'16 4.6
2016-Sep-19 23:05N 33°46' W 118°13'0 0.0
2016-Sep-19 19:17N 33°46' W 118°13'0 0.0
2016-Sep-19 16:33N 33°46' W 118°13'0 0.0
2016-Sep-19 14:32N 33°46' W 118°13'0 0.0
2016-Sep-19 13:33N 33°46' W 118°13'0 0.0
2016-Sep-19 12:16N 33°46' W 118°13'0 0.0
2016-Sep-19 09:33N 33°46' W 118°13'0 0.0
2016-Sep-19 07:28N 33°46' W 118°13'0 0.0
2016-Sep-19 06:33N 33°46' W 118°13'0 0.0
2016-Sep-19 03:20N 33°46' W 118°13'0 0.0
2016-Sep-19 02:32N 33°46' W 118°13'0 0.0
2016-Sep-19 00:33N 33°46' W 118°13'0 0.0
2016-Sep-18 19:33N 33°46' W 118°13'0 0.0
2016-Sep-18 15:33N 33°46' W 118°13'0 0.0
2016-Sep-18 14:33N 33°46' W 118°13'0 0.0
2016-Sep-18 10:33N 33°46' W 118°13'0 0.0
2016-Sep-18 09:33N 33°46' W 118°13'0 0.0
2016-Sep-18 02:33N 33°46' W 118°13'0 0.0
2016-Sep-18 01:34N 33°46' W 118°13'1110.9
2016-Sep-18 00:33N 33°36' W 118°08'3516.9
2016-Sep-17 22:28N 33°04' W 117°51'2 2.5
2016-Sep-17 21:33N 33°02' W 117°50'1 0.9
2016-Sep-17 20:33N 33°01' W 117°49'1 0.7
2016-Sep-17 19:16N 33°01' W 117°48'4 0.7
2016-Sep-17 13:34N 32°59' W 117°45'1 0.6
2016-Sep-17 12:33N 32°58' W 117°45'3 1.5
2016-Sep-17 10:34N 32°56' W 117°46'2 1.5
2016-Sep-17 09:34N 32°54' W 117°47'1 1.4
2016-Sep-17 08:34N 32°55' W 117°49'1 0.7
2016-Sep-17 07:33N 32°55' W 117°49'1 0.4
2016-Sep-17 05:34N 32°56' W 117°49'0 0.3
2016-Sep-17 04:34N 32°56' W 117°49'4 1.0
2016-Sep-17 00:34N 32°60' W 117°51'35 5.0
2016-Sep-16 17:33N 33°32' W 118°06'15 6.1
2016-Sep-16 15:05N 33°46' W 118°13'0 0.1
2016-Sep-16 07:23N 33°46' W 118°13'0 0.0
2016-Sep-16 03:32N 33°46' W 118°13'0 0.0
2016-Sep-16 02:32N 33°46' W 118°13'0 0.0
2016-Sep-16 00:32N 33°46' W 118°13'0 0.0
2016-Sep-15 12:33N 33°46' W 118°13'0 0.0
2016-Sep-13 20:25N 33°46' W 118°13'2814.0
2016-Sep-13 18:26N 33°20' W 118°01'5 6.3
2016-Sep-13 17:33N 33°15' W 117°59'1110.6
2016-Sep-13 16:33N 33°08' W 117°50'4 0.8
2016-Sep-13 11:33N 33°04' W 117°51'2 1.1
2016-Sep-13 09:34N 33°01' W 117°50'2 0.9
2016-Sep-13 07:33N 32°60' W 117°49'1 1.0
2016-Sep-13 06:33N 32°59' W 117°50'3 1.4
2016-Sep-13 04:33N 32°57' W 117°47'1 0.6
2016-Sep-13 02:33N 32°57' W 117°46'2 0.7
2016-Sep-12 23:33N 32°56' W 117°43'3 1.3
2016-Sep-12 21:33N 32°58' W 117°45'2 0.8
2016-Sep-12 19:33N 32°59' W 117°46'2 0.8
2016-Sep-12 17:33N 32°60' W 117°48'5 1.8
2016-Sep-12 14:33N 33°04' W 117°52'5 4.5
2016-Sep-12 13:33N 33°08' W 117°54'  
Track history (hours):
 
Tides and Currents Weather Stations Pressure Air Temp Water Temp Dewpoint Dewpoint Depression Visibility Wind Speed Wind Dir Waves Ship Positions

Piper Inness

Owner: Foss Maritime Co, Seattle, WA. More information available from US FCC via Universal Licensing System and Coast Guard Vessel Documentation Center.

Last reported at 2016-Sep-22 12:33 UTC. Time now 2016-Sep-26 00:13 UTC.
Position N 33°46' W 118°13'.

; draft 2 m.

Type: Other ship. MMSI: 367017440.

Date/timePositionNaut miles runAvg speedWind from/ knotsBaromVisibWave heightAir tempDewpointWater temp
2016-Sep-22 12:33N 33°46' W 118°13'0 0.0
2016-Sep-22 04:33N 33°46' W 118°13'0 0.0
2016-Sep-22 03:33N 33°46' W 118°13'0 0.0
2016-Sep-21 19:31N 33°46' W 118°13'46 4.6
2016-Sep-21 09:33N 33°03' W 117°54'1 1.4
2016-Sep-21 08:33N 33°03' W 117°52'4 1.4
2016-Sep-21 05:33N 33°00' W 117°48'0 0.1
2016-Sep-21 03:33N 32°60' W 117°48'2 1.9
2016-Sep-21 02:33N 32°58' W 117°48'2 0.2
2016-Sep-20 17:33N 32°60' W 117°49'1 0.5
2016-Sep-20 14:33N 33°01' W 117°50'0 0.4
2016-Sep-20 13:33N 33°01' W 117°51'0 0.1
2016-Sep-20 10:33N 33°01' W 117°51'1 0.6
2016-Sep-20 08:33N 33°02' W 117°52'4 3.7
2016-Sep-20 07:33N 33°04' W 117°55'4 4.1
2016-Sep-20 06:33N 33°08' W 117°58'25 6.1
2016-Sep-20 02:33N 33°32' W 118°04'16 4.6
2016-Sep-19 23:05N 33°46' W 118°13'0 0.0
2016-Sep-19 19:17N 33°46' W 118°13'0 0.0
2016-Sep-19 16:33N 33°46' W 118°13'0 0.0
2016-Sep-19 14:32N 33°46' W 118°13'0 0.0
2016-Sep-19 13:33N 33°46' W 118°13'0 0.0
2016-Sep-19 12:16N 33°46' W 118°13'0 0.0
2016-Sep-19 09:33N 33°46' W 118°13'0 0.0
2016-Sep-19 07:28N 33°46' W 118°13'0 0.0
2016-Sep-19 06:33N 33°46' W 118°13'0 0.0
2016-Sep-19 03:20N 33°46' W 118°13'0 0.0
2016-Sep-19 02:32N 33°46' W 118°13'0 0.0
2016-Sep-19 00:33N 33°46' W 118°13'0 0.0
2016-Sep-18 19:33N 33°46' W 118°13'0 0.0
2016-Sep-18 15:33N 33°46' W 118°13'0 0.0
2016-Sep-18 14:33N 33°46' W 118°13'0 0.0
2016-Sep-18 10:33N 33°46' W 118°13'0 0.0
2016-Sep-18 09:33N 33°46' W 118°13'0 0.0
2016-Sep-18 02:33N 33°46' W 118°13'0 0.0
2016-Sep-18 01:34N 33°46' W 118°13'1110.9
2016-Sep-18 00:33N 33°36' W 118°08'3516.9
2016-Sep-17 22:28N 33°04' W 117°51'2 2.5
2016-Sep-17 21:33N 33°02' W 117°50'1 0.9
2016-Sep-17 20:33N 33°01' W 117°49'1 0.7
2016-Sep-17 19:16N 33°01' W 117°48'4 0.7
2016-Sep-17 13:34N 32°59' W 117°45'1 0.6
2016-Sep-17 12:33N 32°58' W 117°45'3 1.5
2016-Sep-17 10:34N 32°56' W 117°46'2 1.5
2016-Sep-17 09:34N 32°54' W 117°47'1 1.4
2016-Sep-17 08:34N 32°55' W 117°49'1 0.7
2016-Sep-17 07:33N 32°55' W 117°49'1 0.4
2016-Sep-17 05:34N 32°56' W 117°49'0 0.3
2016-Sep-17 04:34N 32°56' W 117°49'4 1.0
2016-Sep-17 00:34N 32°60' W 117°51'35 5.0
2016-Sep-16 17:33N 33°32' W 118°06'15 6.1
2016-Sep-16 15:05N 33°46' W 118°13'0 0.1
2016-Sep-16 07:23N 33°46' W 118°13'0 0.0
2016-Sep-16 03:32N 33°46' W 118°13'0 0.0
2016-Sep-16 02:32N 33°46' W 118°13'0 0.0
2016-Sep-16 00:32N 33°46' W 118°13'0 0.0
2016-Sep-15 12:33N 33°46' W 118°13'0 0.0
2016-Sep-13 20:25N 33°46' W 118°13'2814.0
2016-Sep-13 18:26N 33°20' W 118°01'5 6.3
2016-Sep-13 17:33N 33°15' W 117°59'1110.6
2016-Sep-13 16:33N 33°08' W 117°50'4 0.8
2016-Sep-13 11:33N 33°04' W 117°51'2 1.1
2016-Sep-13 09:34N 33°01' W 117°50'2 0.9
2016-Sep-13 07:33N 32°60' W 117°49'1 1.0
2016-Sep-13 06:33N 32°59' W 117°50'3 1.4
2016-Sep-13 04:33N 32°57' W 117°47'1 0.6
2016-Sep-13 02:33N 32°57' W 117°46'2 0.7
2016-Sep-12 23:33N 32°56' W 117°43'3 1.3
2016-Sep-12 21:33N 32°58' W 117°45'2 0.8
2016-Sep-12 19:33N 32°59' W 117°46'2 0.8
2016-Sep-12 17:33N 32°60' W 117°48'5 1.8
2016-Sep-12 14:33N 33°04' W 117°52'5 4.5
2016-Sep-12 13:33N 33°08' W 117°54'  

Dump ship's entire track history